Time;durP1;ratioP1;P1;durP2;ratioP2;P2;SDS_P1;SDS_P2;PMS_P1;PMS_P2;Temp;Humidity;BMP_temperature;BMP_pressure;BME280_temperature;BME280_humidity;BME280_pressure;Samples;Min_cycle;Max_cycle;Signal;HPM_P1;HPM_P2
2020/12/31 00:00:19;;;;;;;8.97;7.07;;;3.00;1.00;;;;;;5029064;28;20868;-57
2020/12/31 00:02:45;;;;;;;8.53;6.77;;;3.00;1.00;;;;;;5025083;28;20240;-57
2020/12/31 00:05:11;;;;;;;7.15;6.03;;;2.90;1.00;;;;;;5020733;28;20194;-56
2020/12/31 00:07:36;;;;;;;7.33;6.10;;;2.90;1.00;;;;;;5013031;28;20187;-57
2020/12/31 00:10:03;;;;;;;9.33;6.40;;;3.00;1.00;;;;;;5026762;28;20240;-56
2020/12/31 00:12:29;;;;;;;7.88;6.97;;;3.10;1.00;;;;;;5029298;28;20185;-57
2020/12/31 00:14:54;;;;;;;9.13;7.03;;;3.00;1.00;;;;;;5025963;28;20175;-54
2020/12/31 00:17:20;;;;;;;9.10;7.30;;;3.00;1.00;;;;;;5029714;28;20181;-55
2020/12/31 00:19:45;;;;;;;10.03;7.70;;;2.90;1.00;;;;;;5021494;28;20185;-56
2020/12/31 00:22:11;;;;;;;7.80;6.87;;;2.90;1.00;;;;;;5028660;28;20201;-56
2020/12/31 00:24:37;;;;;;;10.20;8.00;;;2.90;1.00;;;;;;5013004;28;20187;-57
2020/12/31 00:27:03;;;;;;;10.03;7.43;;;2.90;1.00;;;;;;5017924;28;20257;-57
2020/12/31 00:29:29;;;;;;;8.90;7.47;;;2.90;1.00;;;;;;5026025;28;20439;-56
2020/12/31 00:31:54;;;;;;;11.27;8.93;;;2.80;1.00;;;;;;5017835;28;20548;-56
2020/12/31 00:34:20;;;;;;;11.10;8.63;;;2.80;1.00;;;;;;5013753;28;20548;-57
2020/12/31 00:36:47;;;;;;;9.70;8.00;;;2.80;1.00;;;;;;5022101;28;20217;-58
2020/12/31 00:39:13;;;;;;;11.30;8.65;;;2.80;1.00;;;;;;5022743;28;20465;-51
2020/12/31 00:41:39;;;;;;;11.80;9.50;;;2.70;1.00;;;;;;5016038;28;20534;-56
2020/12/31 00:44:05;;;;;;;10.40;8.43;;;2.70;1.00;;;;;;5027918;28;20208;-55
2020/12/31 00:46:30;;;;;;;15.20;8.73;;;2.70;1.00;;;;;;5009928;28;20229;-57
2020/12/31 00:48:56;;;;;;;11.63;9.17;;;2.70;1.00;;;;;;5021906;28;20243;-57
2020/12/31 00:51:21;;;;;;;10.90;9.40;;;2.60;1.00;;;;;;5028580;28;20182;-55
2020/12/31 00:53:47;;;;;;;14.80;9.53;;;2.60;1.00;;;;;;5017135;28;20232;-55
2020/12/31 00:56:13;;;;;;;11.57;9.13;;;2.60;1.00;;;;;;5014395;28;20181;-56
2020/12/31 00:58:38;;;;;;;13.63;10.57;;;2.50;1.00;;;;;;5020978;28;20189;-54
2020/12/31 01:01:04;;;;;;;12.03;9.70;;;2.40;1.00;;;;;;5028886;28;20178;-54
2020/12/31 01:03:30;;;;;;;12.10;9.30;;;2.40;2.30;;;;;;5017761;28;20233;-56
2020/12/31 01:05:55;;;;;;;15.23;9.83;;;2.40;4.00;;;;;;5027794;28;20207;-54
2020/12/31 01:08:21;;;;;;;12.50;9.53;;;2.20;5.20;;;;;;5023297;28;20832;-56
2020/12/31 01:10:46;;;;;;;15.30;10.10;;;2.20;10.60;;;;;;5028969;28;20206;-54
2020/12/31 01:13:12;;;;;;;15.63;10.40;;;2.20;13.90;;;;;;5020344;28;20239;-57
2020/12/31 01:15:38;;;;;;;14.90;10.30;;;2.20;15.50;;;;;;5016533;28;20176;-58
2020/12/31 01:18:03;;;;;;;12.73;10.90;;;2.10;18.90;;;;;;5016087;28;20186;-57
2020/12/31 01:20:29;;;;;;;14.90;10.50;;;2.00;20.50;;;;;;5016396;28;20602;-55
2020/12/31 01:22:55;;;;;;;14.30;10.60;;;2.00;25.20;;;;;;5027119;28;20820;-57
2020/12/31 01:25:20;;;;;;;14.63;11.57;;;1.90;27.10;;;;;;5029095;28;20207;-52
2020/12/31 01:27:46;;;;;;;16.20;11.83;;;1.90;28.70;;;;;;5019089;28;20221;-55
2020/12/31 01:30:12;;;;;;;14.20;11.33;;;1.90;29.90;;;;;;5011307;28;20186;-53
2020/12/31 01:32:37;;;;;;;13.47;9.80;;;1.80;31.20;;;;;;5029034;28;20181;-55
2020/12/31 01:35:03;;;;;;;10.40;8.40;;;1.80;30.60;;;;;;5023316;28;20195;-57
2020/12/31 01:37:29;;;;;;;11.32;8.60;;;1.90;24.00;;;;;;5022974;28;20190;-56
2020/12/31 01:39:54;;;;;;;13.13;9.60;;;2.00;16.70;;;;;;5026411;28;20228;-58
2020/12/31 01:42:20;;;;;;;11.73;9.63;;;2.10;15.00;;;;;;5022211;28;20259;-56
2020/12/31 01:44:47;;;;;;;13.60;9.70;;;2.00;22.80;;;;;;5032412;28;20649;-55
2020/12/31 01:47:14;;;;;;;13.70;9.75;;;2.00;24.10;;;;;;5024472;28;20270;-58
2020/12/31 01:49:42;;;;;;;13.10;9.77;;;1.90;18.10;;;;;;5031999;28;20181;-56
2020/12/31 01:52:08;;;;;;;15.13;9.18;;;1.80;17.90;;;;;;5020068;28;20208;-55
2020/12/31 01:54:34;;;;;;;13.20;9.70;;;1.70;15.20;;;;;;5030803;28;20674;-55
2020/12/31 01:57:00;;;;;;;13.35;10.27;;;1.70;18.00;;;;;;5031415;28;20188;-55
2020/12/31 01:59:26;;;;;;;16.40;11.17;;;1.50;22.30;;;;;;5014857;28;20563;-57
2020/12/31 02:01:52;;;;;;;15.73;11.10;;;1.40;29.80;;;;;;5032045;28;20211;-56
2020/12/31 02:04:19;;;;;;;14.82;10.82;;;1.30;35.90;;;;;;5015726;28;22633;-54
2020/12/31 02:06:45;;;;;;;19.58;10.93;;;1.20;40.70;;;;;;5021100;28;20180;-53
2020/12/31 02:09:11;;;;;;;15.40;11.13;;;1.20;47.60;;;;;;5031406;28;20184;-58
2020/12/31 02:11:37;;;;;;;17.13;12.63;;;1.10;51.50;;;;;;5026961;28;20754;-57
2020/12/31 02:14:03;;;;;;;16.27;11.53;;;1.10;55.90;;;;;;5030475;28;20276;-57
2020/12/31 02:16:35;;;;;;;17.48;10.85;;;1.10;61.00;;;;;;5030649;28;20445;-56
2020/12/31 02:19:02;;;;;;;15.38;11.05;;;1.00;62.40;;;;;;5025243;28;20218;-55
2020/12/31 02:21:31;;;;;;;16.77;11.80;;;1.00;64.30;;;;;;5031551;28;20525;-57
2020/12/31 02:23:59;;;;;;;15.57;11.20;;;1.00;67.60;;;;;;5020334;28;20181;-57
2020/12/31 02:26:27;;;;;;;15.40;11.90;;;0.90;73.10;;;;;;5023843;28;20310;-59
2020/12/31 02:28:54;;;;;;;15.77;11.43;;;0.90;78.20;;;;;;5027904;28;20642;-58
2020/12/31 02:31:21;;;;;;;15.00;10.88;;;0.90;78.20;;;;;;5029444;28;20182;-55
2020/12/31 02:33:55;;;;;;;15.80;11.00;;;0.90;80.90;;;;;;5027929;28;20184;-55
2020/12/31 02:36:22;;;;;;;13.80;10.98;;;1.00;81.20;;;;;;5022501;28;20180;-54
2020/12/31 02:38:48;;;;;;;17.17;10.75;;;0.90;78.70;;;;;;5020998;28;20202;-53
2020/12/31 02:41:14;;;;;;;14.23;10.32;;;0.90;78.30;;;;;;5013075;28;20220;-57
2020/12/31 02:43:40;;;;;;;15.70;10.48;;;0.90;78.10;;;;;;5021907;28;20218;-55
2020/12/31 02:46:10;;;;;;;14.13;10.73;;;0.90;75.00;;;;;;5029993;28;20718;-53
2020/12/31 02:48:36;;;;;;;13.63;10.73;;;0.90;76.20;;;;;;5029785;28;20991;-57
2020/12/31 02:51:02;;;;;;;16.27;11.00;;;0.90;76.30;;;;;;5031093;28;20191;-56
2020/12/31 02:53:27;;;;;;;14.30;10.73;;;0.90;77.70;;;;;;5027835;28;20434;-57
2020/12/31 02:55:53;;;;;;;16.50;10.87;;;0.90;78.20;;;;;;5018790;28;20439;-55
2020/12/31 02:58:18;;;;;;;13.60;10.47;;;0.90;74.70;;;;;;5018551;28;20197;-53
2020/12/31 03:00:44;;;;;;;16.70;11.57;;;0.90;74.20;;;;;;5031122;28;20983;-55
2020/12/31 03:03:10;;;;;;;15.30;11.43;;;0.80;75.40;;;;;;5028954;28;20212;-55
2020/12/31 03:05:36;;;;;;;13.00;10.40;;;0.80;77.50;;;;;;5030819;28;20434;-55
2020/12/31 03:08:03;;;;;;;14.73;10.65;;;0.80;85.50;;;;;;5029932;28;20588;-55
2020/12/31 03:10:29;;;;;;;14.15;10.80;;;0.80;89.00;;;;;;5028306;28;20708;-55
2020/12/31 03:12:54;;;;;;;15.20;11.57;;;0.80;92.30;;;;;;5029506;28;20179;-55
2020/12/31 03:15:21;;;;;;;15.93;11.40;;;0.90;92.70;;;;;;5027364;28;20649;-56
2020/12/31 03:17:47;;;;;;;18.85;12.07;;;0.90;91.90;;;;;;5022252;28;20619;-56
2020/12/31 03:20:13;;;;;;;18.27;11.77;;;0.90;92.30;;;;;;5030809;28;20194;-54
2020/12/31 03:22:38;;;;;;;15.10;11.03;;;1.00;92.50;;;;;;5025815;28;20461;-54
2020/12/31 03:25:04;;;;;;;16.07;11.33;;;1.00;90.50;;;;;;5028144;28;20966;-56
2020/12/31 03:27:30;;;;;;;14.45;11.10;;;1.00;90.20;;;;;;5029197;28;20188;-57
2020/12/31 03:29:56;;;;;;;15.80;11.50;;;1.00;90.30;;;;;;5011166;28;20184;-56
2020/12/31 03:32:22;;;;;;;18.40;12.23;;;1.10;88.40;;;;;;5023945;28;20598;-57
2020/12/31 03:34:47;;;;;;;15.53;10.67;;;1.10;85.80;;;;;;5030588;28;20529;-56
2020/12/31 03:37:13;;;;;;;17.43;12.53;;;1.10;85.60;;;;;;5029793;28;20188;-56
2020/12/31 03:39:40;;;;;;;15.47;11.80;;;1.20;85.10;;;;;;5018122;28;20650;-55
2020/12/31 03:42:05;;;;;;;14.73;10.98;;;1.30;78.90;;;;;;5028957;28;20207;-53
2020/12/31 03:44:31;;;;;;;18.67;12.23;;;1.30;73.80;;;;;;5024161;28;20207;-55
2020/12/31 03:46:57;;;;;;;15.73;11.07;;;1.30;65.50;;;;;;5018177;28;20207;-56
2020/12/31 03:49:22;;;;;;;15.80;11.73;;;1.30;64.60;;;;;;5028999;28;20537;-53
2020/12/31 03:51:48;;;;;;;17.27;12.83;;;1.30;58.90;;;;;;5023221;28;20443;-56
2020/12/31 03:54:14;;;;;;;15.10;11.83;;;1.40;58.70;;;;;;5025820;28;20325;-55
2020/12/31 03:56:39;;;;;;;17.03;11.97;;;1.40;54.90;;;;;;5017223;28;20212;-55
2020/12/31 03:59:05;;;;;;;16.03;12.70;;;1.40;53.50;;;;;;5009579;28;20927;-54
2020/12/31 04:01:32;;;;;;;18.97;11.67;;;1.30;54.00;;;;;;5025441;28;20863;-53
2020/12/31 04:03:58;;;;;;;15.98;11.13;;;1.30;53.90;;;;;;5018572;28;20181;-55
2020/12/31 04:06:24;;;;;;;17.90;11.80;;;1.30;55.50;;;;;;5016322;28;20246;-56
2020/12/31 04:08:50;;;;;;;16.47;12.57;;;1.30;56.10;;;;;;5030095;28;20929;-57
2020/12/31 04:11:16;;;;;;;16.45;11.82;;;1.30;52.80;;;;;;5022649;28;20440;-56
2020/12/31 04:13:41;;;;;;;18.67;12.50;;;1.30;51.60;;;;;;5028435;28;20554;-53
2020/12/31 04:16:07;;;;;;;16.63;11.80;;;1.20;49.90;;;;;;5016598;28;20193;-55
2020/12/31 04:18:32;;;;;;;16.20;12.73;;;1.10;51.50;;;;;;5024929;28;20206;-58
2020/12/31 04:20:58;;;;;;;17.53;12.27;;;1.10;55.50;;;;;;5029671;28;20211;-56
2020/12/31 04:23:24;;;;;;;16.13;11.97;;;1.00;58.60;;;;;;5021905;28;20248;-55
2020/12/31 04:25:50;;;;;;;18.85;13.52;;;0.90;65.40;;;;;;5017476;28;20214;-56
2020/12/31 04:28:16;;;;;;;17.58;13.05;;;0.90;70.60;;;;;;5024485;28;20183;-55
2020/12/31 04:30:45;;;;;;;22.40;14.20;;;0.90;75.10;;;;;;5029459;28;20256;-53
2020/12/31 04:33:11;;;;;;;18.58;13.32;;;0.90;77.30;;;;;;5023546;28;20198;-57
2020/12/31 04:35:37;;;;;;;18.40;13.27;;;0.80;78.30;;;;;;5012149;28;20201;-56
2020/12/31 04:38:02;;;;;;;21.50;13.10;;;0.70;79.80;;;;;;5024761;28;20466;-55
2020/12/31 04:40:28;;;;;;;18.87;13.00;;;0.70;82.80;;;;;;5023494;28;20246;-58
2020/12/31 04:42:54;;;;;;;20.60;13.77;;;0.60;88.60;;;;;;5016083;28;20662;-55
2020/12/31 04:45:21;;;;;;;20.83;14.35;;;0.60;91.90;;;;;;5017269;28;20199;-56
2020/12/31 04:47:54;;;;;;;19.98;14.10;;;0.60;93.50;;;;;;5026304;28;20281;-56
2020/12/31 04:50:21;;;;;;;21.25;14.70;;;0.60;94.20;;;;;;5026325;28;20184;-56
2020/12/31 04:52:48;;;;;;;23.17;15.63;;;0.60;95.60;;;;;;5011950;28;20191;-58
2020/12/31 04:55:17;;;;;;;20.55;15.10;;;0.50;97.10;;;;;;5009608;28;20187;-56
2020/12/31 04:57:43;;;;;;;24.85;15.48;;;0.50;99.10;;;;;;5023934;28;20237;-56
2020/12/31 05:00:09;;;;;;;23.43;15.63;;;0.50;99.80;;;;;;5028852;28;20191;-54
2020/12/31 05:02:34;;;;;;;23.60;15.07;;;0.40;99.90;;;;;;5026048;28;20648;-56
2020/12/31 05:05:01;;;;;;;23.83;15.60;;;0.40;99.90;;;;;;5027776;28;20159;-57
2020/12/31 05:07:27;;;;;;;24.58;16.80;;;0.40;99.90;;;;;;5020748;28;20270;-55
2020/12/31 05:10:10;;;;;;;23.60;15.73;;;0.40;99.90;;;;;;5008839;28;20266;-55
2020/12/31 05:12:35;;;;;;;24.83;15.95;;;0.50;99.90;;;;;;5011210;28;20397;-57
2020/12/31 05:15:01;;;;;;;23.37;15.50;;;0.40;99.90;;;;;;5030938;28;20526;-56
2020/12/31 05:17:29;;;;;;;22.50;16.10;;;0.40;99.90;;;;;;5039244;28;20187;-58
2020/12/31 05:19:55;;;;;;;23.00;16.13;;;0.40;99.90;;;;;;5013673;28;20523;-54
2020/12/31 05:22:21;;;;;;;22.10;15.18;;;0.40;99.90;;;;;;5023307;28;20272;-59
2020/12/31 05:24:52;;;;;;;22.35;15.75;;;0.30;99.90;;;;;;5013828;28;20206;-56
2020/12/31 05:27:24;;;;;;;21.40;14.38;;;0.40;99.90;;;;;;5023864;28;20205;-57
2020/12/31 05:30:06;;;;;;;22.38;15.52;;;0.40;99.90;;;;;;5023158;28;20175;-56
2020/12/31 05:32:37;;;;;;;20.77;14.90;;;0.40;99.90;;;;;;5025430;28;20249;-59
2020/12/31 05:35:10;;;;;;;23.92;15.27;;;0.40;99.90;;;;;;5020828;28;20194;-57
2020/12/31 05:37:36;;;;;;;22.33;14.88;;;0.40;99.90;;;;;;5011134;28;20207;-55
2020/12/31 05:40:05;;;;;;;22.20;15.37;;;0.40;99.90;;;;;;5019951;28;20320;-55
2020/12/31 05:42:32;;;;;;;23.88;15.00;;;0.40;99.90;;;;;;5023053;28;20258;-55
2020/12/31 05:45:05;;;;;;;22.30;15.77;;;0.40;99.90;;;;;;5026094;28;20175;-59
2020/12/31 05:47:32;;;;;;;20.38;14.57;;;0.40;99.90;;;;;;5029013;28;20167;-59
2020/12/31 05:49:58;;;;;;;19.95;13.07;;;0.40;99.90;;;;;;5027275;28;20176;-58
2020/12/31 05:52:37;;;;;;;21.20;14.10;;;0.40;99.90;;;;;;5016425;28;20659;-59
2020/12/31 05:55:05;;;;;;;19.33;13.93;;;0.50;99.90;;;;;;5020915;28;20192;-58
2020/12/31 05:57:45;;;;;;;19.25;12.95;;;0.50;99.90;;;;;;5014951;28;20599;-56
2020/12/31 06:00:25;;;;;;;19.13;13.73;;;0.50;99.90;;;;;;5009506;28;20220;-58
2020/12/31 06:03:01;;;;;;;21.58;14.27;;;0.60;99.90;;;;;;5017816;28;20268;-57
2020/12/31 06:05:28;;;;;;;21.00;13.93;;;0.60;99.90;;;;;;5015725;28;20182;-57
2020/12/31 06:07:56;;;;;;;21.58;13.55;;;0.60;99.90;;;;;;5015512;28;20182;-58
2020/12/31 06:10:29;;;;;;;19.98;12.65;;;0.70;99.90;;;;;;5028438;28;20175;-55
2020/12/31 06:13:03;;;;;;;18.25;12.40;;;0.70;99.90;;;;;;5022522;28;20188;-56
2020/12/31 06:15:39;;;;;;;17.58;12.85;;;0.80;99.90;;;;;;5008526;28;20280;-55
2020/12/31 06:18:06;;;;;;;18.90;12.45;;;0.90;99.90;;;;;;5025216;28;20189;-52
2020/12/31 06:20:38;;;;;;;18.75;12.13;;;0.90;99.90;;;;;;5018907;28;20194;-56
2020/12/31 06:23:04;;;;;;;15.85;11.43;;;1.00;98.00;;;;;;5027011;28;20638;-59
2020/12/31 06:25:40;;;;;;;17.77;11.60;;;1.10;93.30;;;;;;5029630;28;20179;-56
2020/12/31 06:28:10;;;;;;;15.25;11.13;;;1.10;82.00;;;;;;5027079;28;20635;-56
2020/12/31 06:30:37;;;;;;;14.52;10.50;;;1.10;77.50;;;;;;5021370;28;20770;-57
2020/12/31 06:33:14;;;;;;;15.85;10.93;;;1.20;70.60;;;;;;5030477;28;20191;-55
2020/12/31 06:35:40;;;;;;;18.15;11.35;;;1.20;62.80;;;;;;5030437;28;20241;-57
2020/12/31 06:38:07;;;;;;;16.42;9.65;;;1.20;56.20;;;;;;5028558;28;20184;-58
2020/12/31 06:40:34;;;;;;;14.32;10.88;;;1.20;51.00;;;;;;5030191;28;20258;-58
2020/12/31 06:43:10;;;;;;;15.38;10.55;;;1.20;45.40;;;;;;5013148;28;20210;-58
2020/12/31 06:45:44;;;;;;;12.90;9.18;;;1.20;42.80;;;;;;5017398;28;20179;-59
2020/12/31 06:48:25;;;;;;;14.98;10.38;;;1.30;43.30;;;;;;5028147;28;20183;-57
2020/12/31 06:50:55;;;;;;;14.25;9.35;;;1.30;40.40;;;;;;5011314;28;20182;-57
2020/12/31 06:53:44;;;;;;;15.45;9.80;;;1.30;39.40;;;;;;5028749;28;20643;-59
2020/12/31 06:56:12;;;;;;;14.80;10.18;;;1.30;39.50;;;;;;5018427;28;20274;-53
2020/12/31 06:58:43;;;;;;;15.10;10.85;;;1.30;36.50;;;;;;5015029;28;20172;-56
2020/12/31 07:01:25;;;;;;;14.27;10.15;;;1.30;37.40;;;;;;5015069;28;20189;-59
2020/12/31 07:03:52;;;;;;;14.70;10.75;;;1.30;36.30;;;;;;5013408;28;20214;-55
2020/12/31 07:06:20;;;;;;;14.55;11.40;;;1.30;34.70;;;;;;5018894;28;20981;-53
2020/12/31 07:08:51;;;;;;;16.90;12.88;;;1.30;33.30;;;;;;5020044;28;20188;-55
2020/12/31 07:11:28;;;;;;;18.05;11.98;;;1.30;37.60;;;;;;5031705;28;20250;-55
2020/12/31 07:13:54;;;;;;;17.35;10.80;;;1.30;39.10;;;;;;5018446;28;20246;-57
2020/12/31 07:16:54;;;;;;;16.57;11.40;;;1.30;37.80;;;;;;5008099;28;20231;-57
2020/12/31 07:19:33;;;;;;;18.40;12.35;;;1.30;37.10;;;;;;5011433;28;21233;-58
2020/12/31 07:21:59;;;;;;;19.40;13.82;;;1.30;35.70;;;;;;5010335;28;20227;-58
2020/12/31 07:24:29;;;;;;;18.13;12.90;;;1.40;36.90;;;;;;5009142;28;20189;-59
2020/12/31 07:26:59;;;;;;;16.60;13.00;;;1.40;35.40;;;;;;5017852;28;20177;-58
2020/12/31 07:29:33;;;;;;;19.58;12.75;;;1.40;35.80;;;;;;5016704;28;20183;-57
2020/12/31 07:32:01;;;;;;;20.73;13.65;;;1.40;33.70;;;;;;5011660;28;20313;-57
2020/12/31 07:34:28;;;;;;;20.73;13.60;;;1.40;33.90;;;;;;5009286;28;20197;-57
2020/12/31 07:37:01;;;;;;;19.42;13.18;;;1.40;33.90;;;;;;5018217;28;20282;-58
2020/12/31 07:39:27;;;;;;;20.30;14.10;;;1.50;39.40;;;;;;5017170;28;20307;-56
2020/12/31 07:42:15;;;;;;;21.92;14.32;;;1.50;46.60;;;;;;5019289;28;20298;-57
2020/12/31 07:44:52;;;;;;;19.85;13.75;;;1.60;48.50;;;;;;5007616;28;20192;-55
2020/12/31 07:47:19;;;;;;;19.00;12.50;;;1.60;46.60;;;;;;5010228;28;20189;-59
2020/12/31 07:49:51;;;;;;;20.50;13.65;;;1.70;46.50;;;;;;5007281;28;20196;-59
2020/12/31 07:52:18;;;;;;;20.48;14.10;;;1.70;42.90;;;;;;5016051;28;20183;-58
2020/12/31 07:54:44;;;;;;;22.85;14.55;;;1.80;39.60;;;;;;5005031;28;20189;-56
2020/12/31 07:57:11;;;;;;;19.80;14.20;;;1.80;37.70;;;;;;5028148;28;20641;-56
2020/12/31 07:59:44;;;;;;;19.63;13.43;;;1.90;35.90;;;;;;5029240;28;20197;-58
2020/12/31 08:02:14;;;;;;;18.30;13.48;;;2.00;32.90;;;;;;5021505;28;20213;-58
2020/12/31 08:04:39;;;;;;;20.60;14.07;;;2.10;30.00;;;;;;5028362;28;20258;-58
2020/12/31 08:07:14;;;;;;;17.17;13.13;;;2.10;28.00;;;;;;5028588;28;20208;-56
2020/12/31 08:09:41;;;;;;;18.83;13.57;;;2.20;29.20;;;;;;5016525;28;20182;-57
2020/12/31 08:12:09;;;;;;;21.77;14.45;;;2.40;28.30;;;;;;5027468;28;20186;-54
2020/12/31 08:14:46;;;;;;;20.20;14.45;;;2.60;24.60;;;;;;5027444;28;20525;-52
2020/12/31 08:17:15;;;;;;;18.38;13.95;;;2.90;16.00;;;;;;5015160;28;20633;-54
2020/12/31 08:19:41;;;;;;;17.70;13.65;;;3.10;9.30;;;;;;5025196;28;20659;-57
2020/12/31 08:22:13;;;;;;;23.50;15.17;;;3.60;1.00;;;;;;5026379;28;20297;-57
2020/12/31 08:24:47;;;;;;;17.08;12.82;;;4.00;1.00;;;;;;5024178;28;20194;-55
2020/12/31 08:27:18;;;;;;;21.95;14.27;;;4.30;1.00;;;;;;5028945;28;20645;-56
2020/12/31 08:29:45;;;;;;;19.00;13.77;;;4.70;1.00;;;;;;5020490;28;20187;-58
2020/12/31 08:32:22;;;;;;;18.17;14.52;;;4.90;1.00;;;;;;5020144;28;20203;-56
2020/12/31 08:34:52;;;;;;;18.38;14.80;;;5.10;1.00;;;;;;5018859;28;20177;-57
2020/12/31 08:37:21;;;;;;;18.92;14.70;;;5.40;1.00;;;;;;5024090;28;20190;-59
2020/12/31 08:39:50;;;;;;;18.85;13.68;;;5.70;1.00;;;;;;5008800;28;20223;-56
2020/12/31 08:42:22;;;;;;;17.30;14.88;;;6.10;99.90;;;;;;5015537;28;20678;-57
2020/12/31 08:44:53;;;;;;;16.08;14.00;;;6.40;1.00;;;;;;5023569;28;20617;-56
2020/12/31 08:47:24;;;;;;;20.25;14.88;;;6.40;99.90;;;;;;5026564;28;20231;-59
2020/12/31 08:49:51;;;;;;;16.98;14.50;;;6.60;1.00;;;;;;5016163;28;20294;-56
2020/12/31 08:52:17;;;;;;;19.37;15.23;;;6.90;99.90;;;;;;5019913;28;20191;-60
2020/12/31 08:54:43;;;;;;;20.60;15.53;;;6.90;99.90;;;;;;5017503;28;20498;-55
2020/12/31 08:57:18;;;;;;;20.10;16.53;;;7.10;1.00;;;;;;5010230;28;20193;-56
2020/12/31 08:59:44;;;;;;;18.50;15.37;;;7.30;99.90;;;;;;5020897;28;20443;-56
2020/12/31 09:02:13;;;;;;;18.83;16.60;;;7.60;99.90;;;;;;5023511;28;20479;-58
2020/12/31 09:04:39;;;;;;;20.50;16.20;;;8.00;99.90;;;;;;5010852;28;20290;-60
2020/12/31 09:07:11;;;;;;;19.23;15.53;;;8.30;1.00;;;;;;5007023;28;20432;-62
2020/12/31 09:09:36;;;;;;;17.20;14.53;;;8.70;99.90;;;;;;5011511;28;21008;-60
2020/12/31 09:12:10;;;;;;;18.73;15.17;;;9.10;1.00;;;;;;5002985;28;20438;-61
2020/12/31 09:14:37;;;;;;;17.60;15.80;;;9.00;1.00;;;;;;5006750;28;20187;-60
2020/12/31 09:17:21;;;;;;;17.50;14.97;;;9.20;1.00;;;;;;5007502;28;20429;-61
2020/12/31 09:19:54;;;;;;;18.57;15.77;;;9.50;1.00;;;;;;5009780;28;20788;-62
2020/12/31 09:22:20;;;;;;;18.37;16.00;;;9.70;1.00;;;;;;5012925;28;20792;-60
2020/12/31 09:24:45;;;;;;;17.80;15.27;;;9.90;1.00;;;;;;5011284;28;20429;-60
2020/12/31 09:27:11;;;;;;;19.03;15.93;;;10.00;1.00;;;;;;5014121;28;20422;-60
2020/12/31 09:29:37;;;;;;;18.67;16.67;;;9.90;1.00;;;;;;5008873;28;20187;-61
2020/12/31 09:32:02;;;;;;;17.47;15.00;;;10.10;1.00;;;;;;5007536;28;20240;-61
2020/12/31 09:34:28;;;;;;;16.37;14.73;;;10.30;1.00;;;;;;5009897;28;20193;-60
2020/12/31 09:37:01;;;;;;;17.73;15.53;;;10.70;1.00;;;;;;5010193;28;20206;-61
2020/12/31 09:39:27;;;;;;;17.37;15.47;;;10.80;1.00;;;;;;5010752;28;20960;-61
2020/12/31 09:41:53;;;;;;;17.47;15.20;;;10.90;99.90;;;;;;5007434;28;20429;-60
2020/12/31 09:44:19;;;;;;;17.03;15.23;;;11.00;99.90;;;;;;5001298;28;20294;-61
2020/12/31 09:46:45;;;;;;;15.83;14.13;;;11.10;99.90;;;;;;5000901;28;20215;-60
2020/12/31 09:49:11;;;;;;;15.60;14.10;;;11.40;1.00;;;;;;5006111;28;20990;-60
2020/12/31 09:51:37;;;;;;;16.00;14.30;;;11.60;99.90;;;;;;5001717;28;20437;-60
2020/12/31 09:54:02;;;;;;;15.60;14.10;;;11.80;99.90;;;;;;5016872;28;20884;-60
2020/12/31 09:56:31;;;;;;;17.57;15.10;;;11.90;99.90;;;;;;5023084;28;20241;-61
2020/12/31 09:58:58;;;;;;;15.67;14.10;;;11.80;99.90;;;;;;5019675;28;20177;-61
2020/12/31 10:01:25;;;;;;;15.10;13.70;;;12.10;99.90;;;;;;5016664;28;20567;-61
2020/12/31 10:03:50;;;;;;;16.80;15.00;;;12.30;99.90;;;;;;5012818;28;20506;-61
2020/12/31 10:06:16;;;;;;;16.10;14.50;;;12.20;99.90;;;;;;5015037;28;20475;-61
2020/12/31 10:08:42;;;;;;;16.17;14.47;;;12.00;99.90;;;;;;5028002;28;20176;-59
2020/12/31 10:11:08;;;;;;;15.17;13.57;;;12.00;99.90;;;;;;5029945;28;20585;-60
2020/12/31 10:13:33;;;;;;;16.60;14.87;;;12.20;99.90;;;;;;5024204;28;20427;-60
2020/12/31 10:16:03;;;;;;;16.87;14.90;;;12.30;99.90;;;;;;5029345;28;20174;-60
2020/12/31 10:18:29;;;;;;;17.27;15.57;;;12.30;99.90;;;;;;5022811;28;20185;-59
2020/12/31 10:20:55;;;;;;;16.50;14.60;;;12.20;99.90;;;;;;5024501;28;20773;-59
2020/12/31 10:23:21;;;;;;;14.30;12.73;;;12.60;99.90;;;;;;5019287;28;20494;-60
2020/12/31 10:25:50;;;;;;;15.23;13.83;;;12.70;99.90;;;;;;5026057;28;20240;-60
2020/12/31 10:28:18;;;;;;;14.30;12.90;;;13.10;1.00;;;;;;5025732;28;20182;-61
2020/12/31 10:30:45;;;;;;;14.27;12.67;;;13.40;99.90;;;;;;5028128;28;20437;-60
2020/12/31 10:33:11;;;;;;;14.50;13.10;;;13.70;99.90;;;;;;5021763;28;20456;-59
2020/12/31 10:35:36;;;;;;;13.17;11.87;;;13.70;99.90;;;;;;5029144;28;20421;-60
2020/12/31 10:38:02;;;;;;;13.73;12.33;;;14.00;99.90;;;;;;5026186;28;20193;-61
2020/12/31 10:40:28;;;;;;;12.80;11.57;;;14.60;99.90;;;;;;5031284;28;20566;-60
2020/12/31 10:42:53;;;;;;;13.37;11.97;;;14.70;99.90;;;;;;5025113;28;20200;-60
2020/12/31 10:45:19;;;;;;;12.47;11.23;;;14.60;99.90;;;;;;5021663;28;20183;-61
2020/12/31 10:47:45;;;;;;;12.87;11.60;;;14.80;99.90;;;;;;5016685;28;20173;-60
2020/12/31 10:50:10;;;;;;;12.00;10.90;;;14.90;99.90;;;;;;5023097;28;20178;-60
2020/12/31 10:52:36;;;;;;;12.43;11.20;;;15.20;99.90;;;;;;5023330;28;20557;-60
2020/12/31 10:55:02;;;;;;;12.50;10.90;;;15.40;99.90;;;;;;5020765;28;20579;-59
2020/12/31 10:57:28;;;;;;;10.70;9.70;;;15.50;99.90;;;;;;5025241;28;20182;-59
2020/12/31 10:59:54;;;;;;;11.27;10.27;;;15.70;99.90;;;;;;5022007;28;20524;-60
2020/12/31 11:02:20;;;;;;;10.93;9.93;;;15.50;99.90;;;;;;5011805;28;20230;-61
2020/12/31 11:04:45;;;;;;;10.90;9.87;;;15.80;99.90;;;;;;5025440;28;20749;-61
2020/12/31 11:07:11;;;;;;;10.80;9.80;;;15.90;99.90;;;;;;5025915;28;20183;-60
2020/12/31 11:09:37;;;;;;;11.03;10.07;;;16.50;99.90;;;;;;5023946;28;20252;-61
2020/12/31 11:12:03;;;;;;;9.83;8.93;;;16.80;99.90;;;;;;5027253;28;20215;-62
2020/12/31 11:14:28;;;;;;;9.67;8.77;;;16.20;99.90;;;;;;5023836;28;20958;-61
2020/12/31 11:16:54;;;;;;;10.50;9.60;;;15.80;99.90;;;;;;5017047;28;20641;-60
2020/12/31 11:19:20;;;;;;;8.97;8.20;;;15.00;99.90;;;;;;5018697;28;20280;-61
2020/12/31 11:21:49;;;;;;;8.33;7.63;;;15.10;99.90;;;;;;5029829;28;20186;-61
2020/12/31 11:24:18;;;;;;;7.77;7.17;;;15.50;99.90;;;;;;5016557;28;20552;-61
2020/12/31 11:26:44;;;;;;;6.73;6.23;;;15.50;99.90;;;;;;5015040;28;21174;-61
2020/12/31 11:29:10;;;;;;;6.13;5.63;;;15.40;99.90;;;;;;5018129;28;21263;-60
2020/12/31 11:31:36;;;;;;;6.17;5.70;;;14.90;99.90;;;;;;5021897;28;20895;-62
2020/12/31 11:34:02;;;;;;;5.83;5.33;;;14.60;99.90;;;;;;5028390;28;20506;-63
2020/12/31 11:36:28;;;;;;;5.67;5.20;;;14.70;99.90;;;;;;5027895;28;20200;-62
2020/12/31 11:38:56;;;;;;;5.37;4.97;;;14.60;99.90;;;;;;5029430;28;20186;-62
2020/12/31 11:41:23;;;;;;;6.00;5.60;;;14.50;99.90;;;;;;5019653;28;20452;-61
2020/12/31 11:43:49;;;;;;;5.20;4.80;;;14.30;1.00;;;;;;5013762;28;20437;-61
2020/12/31 11:46:15;;;;;;;5.80;5.37;;;14.20;99.90;;;;;;5017126;28;20229;-61
2020/12/31 11:48:40;;;;;;;5.53;5.13;;;15.00;99.90;;;;;;5025484;28;20435;-61
2020/12/31 11:51:10;;;;;;;5.73;5.33;;;14.80;99.90;;;;;;5015964;28;20179;-61
2020/12/31 11:53:36;;;;;;;5.00;4.63;;;15.00;99.90;;;;;;5021840;28;20268;-61
2020/12/31 11:56:03;;;;;;;4.50;4.20;;;14.50;99.90;;;;;;5023136;28;20444;-60
2020/12/31 11:58:35;;;;;;;5.03;4.53;;;14.50;99.90;;;;;;5018806;28;20437;-60
2020/12/31 12:01:02;;;;;;;4.63;4.33;;;13.90;99.90;;;;;;5018413;28;20448;-62
2020/12/31 12:03:28;;;;;;;4.70;4.40;;;13.60;99.90;;;;;;5018126;28;20599;-61
2020/12/31 12:05:54;;;;;;;4.90;4.60;;;13.40;99.90;;;;;;5021447;28;20588;-61
2020/12/31 12:08:28;;;;;;;5.10;4.70;;;13.20;99.90;;;;;;5021877;28;20527;-62
2020/12/31 12:10:57;;;;;;;5.90;5.40;;;12.90;99.90;;;;;;5022441;28;20456;-61
2020/12/31 12:13:23;;;;;;;5.63;5.23;;;12.00;99.90;;;;;;5023922;28;20433;-61
2020/12/31 12:15:49;;;;;;;5.73;5.30;;;11.70;99.90;;;;;;5030700;28;20460;-61
2020/12/31 12:18:15;;;;;;;5.10;4.77;;;11.70;99.90;;;;;;5026540;28;20433;-61
2020/12/31 12:20:40;;;;;;;5.40;5.00;;;11.80;99.90;;;;;;5031984;28;20184;-62
2020/12/31 12:23:06;;;;;;;5.40;5.00;;;12.20;99.90;;;;;;5022161;28;20261;-61
2020/12/31 12:25:32;;;;;;;5.67;5.17;;;11.90;99.90;;;;;;5024548;28;20261;-61
2020/12/31 12:27:57;;;;;;;5.23;4.80;;;11.40;99.90;;;;;;5024769;28;20232;-61
2020/12/31 12:30:23;;;;;;;6.20;5.70;;;11.50;99.90;;;;;;5014657;28;20257;-61
2020/12/31 12:32:50;;;;;;;5.67;5.27;;;11.40;99.90;;;;;;5020750;28;20681;-61
2020/12/31 12:35:16;;;;;;;5.50;5.10;;;10.80;99.90;;;;;;5023998;28;20430;-61
2020/12/31 12:37:41;;;;;;;5.60;5.10;;;10.70;99.90;;;;;;5028628;28;20436;-62
2020/12/31 12:40:14;;;;;;;5.67;5.17;;;10.90;99.90;;;;;;5018157;28;20842;-62
2020/12/31 12:42:40;;;;;;;7.00;6.50;;;11.30;99.90;;;;;;5009780;28;20214;-61